Terminal Aerodrome Forecast
Issued by NWS

Home | Current Version | Previous Version | Text Only | Print | Product List | Glossary On
Versions: 1 2 3 4 5 6 7 8 9 10 11 12 13 14 15 16 17 18 19 20 21 22 23 24 25 26 27 28 29 30 31
000
FTAK31 PANC 271130
TAFADL
TAF
PADL 271130Z 2712/2812 02007KT P6SM SCT100
     FM271600 03014G22KT P6SM VCSH SCT035 BKN060 WS020/10035KT
     FM272100 08012G20KT P6SM VCSH SCT035 BKN060
     FM280400 03010G16KT P6SM VCSH SCT060 BKN100
      AMD LTD TO CLD VIS AND WIND TIL 271600=

USA.gov is the U.S. government's official web portal to all federal, state and local government web resources and services.